Airfield :
LOGIN :

Register | Disclaimer

   EN    FR    IT 

 










Legend :    VFR   Marginal VFR   IFR   Intensive IFR   Very Intensive IFR
Visi :
Ceiling :
>= 8 km
>= 3000ft
5 to 8 km
1000 to 3000 ft
1500m to 5 km
500 to 1000 ft
800 to 1500m
200 to 500 ft
< 800m
< 200 ft
Symbols :   Thunderstorms  Fog  Heavy snow  Heavy precipitations  Wind > 20 kt
SIGMETs :     Misc.  Thunderstorms  Icing  Turbulence  Mountain Waves  Volcanic Ashes






- Airport Elevation : 257 ft
- IATA code : MAN


EGCC - Manchester

CURRENT METAR :
  • 152250Z AUTO 18006KT 140V230 9999 FEW031 05/03 Q0993 NOSIG

EXPIRED METARs :
  • 152220Z AUTO 18006KT 140V210 9999 FEW031 05/03 Q0993 NOSIG
  • 152150Z AUTO 18006KT 9999 SCT022 BKN029 05/03 Q0993 NOSIG
  • 152120Z AUTO 20004KT 9999 BKN021/// OVC032/// //////TCU 04/03 Q0993 NOSIG
  • 152050Z AUTO 18004KT 120V220 9999 -RA SCT031 BKN038 05/03 Q0993 TEMPO SHRA
  • 152020Z 18005KT 140V220 9999 -RA SCT019 BKN030 05/03 Q0993 TEMPO SHRA

TAF AMD TAF EGCC
Valid from the 15 at 18:00 until the 17 at 00:00 UTC


151849Z 1518/1624 19009KT 9999 SCT035
TEMPO 1518/1524 18018G28KT
TEMPO 1518/1524 6000 SHRA SHGS BKN012
PROB40
TEMPO 1518/1521 3000 +SHRA
PROB30
TEMPO 1600/1609 6000 SHRA BKN014
PROB30
TEMPO 1621/1624 4000 BR
ATIS : +44 161 499 2324



MET'MAP, your aeronautical weather chart ! - Copyright ORBIFLY December 2007 - Disclaimer

ORBIFLY MET'MAP TEAM :

Programming & Development : Alexandra Zaïnal
Concept & original design : Baudouin d'Aumeries
Assistance for programming : Marc-Olivier Méhu
Technical & hardware support : Manuel Goepfert

Contact : metmap@orbifly.com




SOURCES & CREDITS :

   NOAA